createdAt,value
2022-09-11T00:02:51.258Z,15.90
2022-09-11T00:07:54.467Z,17.40
2022-09-11T00:12:57.335Z,15.90
2022-09-11T00:18:00.134Z,17.70
2022-09-11T00:23:05.329Z,17.30
2022-09-11T00:28:08.093Z,17.20
2022-09-11T00:33:13.059Z,15.50
2022-09-11T00:38:17.432Z,15.50
2022-09-11T00:43:21.387Z,16.30
2022-09-11T00:48:27.845Z,15.30
2022-09-11T00:53:34.695Z,14.30
2022-09-11T00:58:42.998Z,13.30
2022-09-11T01:03:46.028Z,14.50
2022-09-11T01:08:48.935Z,12.60
2022-09-11T01:14:20.816Z,15.30
2022-09-11T01:19:49.730Z,15.80
2022-09-11T01:25:20.900Z,16.60
2022-09-11T01:30:29.441Z,15.90
2022-09-11T01:36:10.221Z,17.40
2022-09-11T01:41:20.647Z,17.20
2022-09-11T01:46:30.573Z,19.90
2022-09-11T01:51:36.519Z,19.20
2022-09-11T01:56:48.873Z,18.30
2022-09-11T02:01:59.278Z,18.40
2022-09-11T02:12:13.531Z,16.50
2022-09-11T02:17:40.221Z,17.50
2022-09-11T02:22:43.641Z,16.80
2022-09-11T02:27:46.745Z,17.10
2022-09-11T02:32:49.755Z,15.90
2022-09-11T02:38:30.442Z,16.30
2022-09-11T02:43:50.554Z,16.50
2022-09-11T02:49:10.864Z,14.50
2022-09-11T02:54:39.775Z,14.80
2022-09-11T02:59:49.732Z,13.60
2022-09-11T03:04:52.551Z,12.90
2022-09-11T03:09:55.351Z,13.70
2022-09-11T03:14:58.668Z,12.30
2022-09-11T03:20:01.773Z,12.40
2022-09-11T03:25:05.646Z,11.80
2022-09-11T03:30:09.719Z,12.00
2022-09-11T03:35:12.623Z,11.20
2022-09-11T03:40:15.524Z,12.20
2022-09-11T03:45:19.119Z,10.50
2022-09-11T03:50:22.368Z,11.20
2022-09-11T03:55:25.274Z,11.90
2022-09-11T04:00:28.692Z,11.80
2022-09-11T04:05:31.591Z,10.80
2022-09-11T04:10:35.008Z,11.90
2022-09-11T04:15:38.219Z,11.00
2022-09-11T04:20:41.021Z,11.30
2022-09-11T04:25:43.824Z,11.00
2022-09-11T04:30:46.630Z,10.60
2022-09-11T04:35:49.527Z,11.20
2022-09-11T04:40:53.457Z,9.60
2022-09-11T04:46:24.266Z,9.60
2022-09-11T04:51:30.343Z,9.10
2022-09-11T04:56:34.734Z,10.00
2022-09-11T05:01:38.145Z,9.20
2022-09-11T05:06:42.597Z,10.10
2022-09-11T05:11:45.593Z,9.40
2022-09-11T05:16:48.561Z,9.70
2022-09-11T05:21:52.014Z,9.20
2022-09-11T05:26:54.919Z,8.90
2022-09-11T05:32:01.655Z,8.90
2022-09-11T05:37:04.719Z,9.80
2022-09-11T05:42:07.678Z,9.70
2022-09-11T05:47:10.630Z,8.90
2022-09-11T05:52:14.354Z,9.20
2022-09-11T05:57:17.464Z,9.00
2022-09-11T06:02:20.390Z,8.60
2022-09-11T06:07:23.269Z,9.00
2022-09-11T06:12:27.506Z,8.70
2022-09-11T06:17:30.509Z,8.10
2022-09-11T06:22:36.524Z,8.20
2022-09-11T06:27:42.053Z,7.90
2022-09-11T06:38:05.890Z,7.30
2022-09-11T06:43:08.791Z,7.50
2022-09-11T06:48:12.304Z,7.40
2022-09-11T06:53:17.974Z,6.90
2022-09-11T06:58:20.877Z,6.50
2022-09-11T07:03:24.101Z,6.30
2022-09-11T07:08:27.785Z,5.50
2022-09-11T07:13:36.775Z,5.50
2022-09-11T07:18:42.581Z,5.70
2022-09-11T07:23:49.775Z,5.20
2022-09-11T07:28:54.776Z,5.10
2022-09-11T07:33:57.698Z,5.40
2022-09-11T07:39:01.519Z,5.10
2022-09-11T07:44:06.263Z,4.60
2022-09-11T07:49:10.398Z,4.00
2022-09-11T07:54:13.507Z,3.20
2022-09-11T07:59:18.358Z,3.90
2022-09-11T08:04:21.464Z,3.50
2022-09-11T08:09:27.437Z,2.90
2022-09-11T08:14:31.367Z,3.50
2022-09-11T08:19:34.274Z,3.40
2022-09-11T08:24:37.181Z,3.10
2022-09-11T08:29:39.977Z,2.80
2022-09-11T08:34:42.879Z,2.90
2022-09-11T08:39:45.810Z,2.90
2022-09-11T08:44:55.751Z,2.60
2022-09-11T08:50:09.616Z,2.70
2022-09-11T08:55:14.883Z,2.20
2022-09-11T09:00:32.423Z,2.60
2022-09-11T09:05:35.223Z,2.30
2022-09-11T09:10:53.770Z,2.10
2022-09-11T09:16:10.057Z,2.60
2022-09-11T09:21:40.258Z,2.10
2022-09-11T09:26:44.208Z,2.40
2022-09-11T09:31:52.204Z,2.10
2022-09-11T09:37:21.749Z,2.10
2022-09-11T09:42:47.782Z,2.30
2022-09-11T09:47:51.023Z,1.70
2022-09-11T09:53:10.774Z,2.30
2022-09-11T09:58:14.963Z,1.90
2022-09-11T10:03:28.483Z,2.10
2022-09-11T10:08:38.040Z,1.80
2022-09-11T10:13:43.916Z,1.90
2022-09-11T10:18:47.291Z,1.90
2022-09-11T10:23:58.435Z,1.70
2022-09-11T10:29:12.799Z,2.10
2022-09-11T10:34:19.197Z,2.20
2022-09-11T10:39:25.269Z,1.80
2022-09-11T10:44:29.797Z,2.00
2022-09-11T10:49:34.213Z,1.90
2022-09-11T10:54:55.376Z,1.50
2022-09-11T11:00:27.307Z,1.80
2022-09-11T11:05:33.028Z,1.70
2022-09-11T11:11:02.413Z,1.80
2022-09-11T11:16:05.308Z,2.20
2022-09-11T11:21:19.325Z,1.60
2022-09-11T11:26:42.504Z,1.70
2022-09-11T11:32:06.621Z,1.50
2022-09-11T11:37:12.589Z,1.80
2022-09-11T11:42:27.876Z,1.60
2022-09-11T11:47:37.093Z,1.80
2022-09-11T11:53:00.068Z,1.70
2022-09-11T11:58:11.810Z,1.50
2022-09-11T12:03:41.799Z,1.50
2022-09-11T12:08:46.494Z,1.60
2022-09-11T12:13:49.705Z,1.90
2022-09-11T12:19:17.149Z,2.00
2022-09-11T12:24:23.264Z,2.00
2022-09-11T12:29:56.482Z,1.80
2022-09-11T12:35:03.276Z,2.00
2022-09-11T12:40:20.412Z,2.10
2022-09-11T12:45:30.856Z,2.00
2022-09-11T12:50:35.130Z,1.80
2022-09-11T12:55:40.025Z,2.10
2022-09-11T13:01:03.111Z,2.10
2022-09-11T13:06:13.853Z,1.50
2022-09-11T13:11:46.138Z,2.50
2022-09-11T13:16:49.832Z,3.40
2022-09-11T13:21:53.897Z,2.30
2022-09-11T13:27:06.010Z,2.20
2022-09-11T13:32:15.753Z,1.90
2022-09-11T13:37:31.481Z,1.70
2022-09-11T13:42:35.995Z,1.80
2022-09-11T13:47:41.486Z,2.10
2022-09-11T13:52:46.141Z,1.90
2022-09-11T13:57:58.726Z,1.90
2022-09-11T14:03:02.292Z,1.70
2022-09-11T14:08:35.318Z,2.00
2022-09-11T14:13:57.343Z,1.90
2022-09-11T14:19:14.998Z,1.90
2022-09-11T14:24:35.615Z,2.00
2022-09-11T14:29:38.621Z,2.10
2022-09-11T14:34:42.545Z,1.90
2022-09-11T14:39:57.153Z,2.10
2022-09-11T14:45:10.121Z,1.90
2022-09-11T14:50:13.815Z,1.90
2022-09-11T14:55:18.842Z,1.70
2022-09-11T15:00:22.028Z,1.50
2022-09-11T15:05:28.206Z,2.00
2022-09-11T15:10:32.616Z,2.00
2022-09-11T15:15:35.477Z,2.00
2022-09-11T15:20:38.378Z,2.20
2022-09-11T15:25:43.956Z,2.30
2022-09-11T15:30:57.442Z,2.00
2022-09-11T15:36:05.260Z,2.00
2022-09-11T15:41:10.169Z,1.90
2022-09-11T15:46:13.173Z,2.00
2022-09-11T15:51:21.400Z,2.50
2022-09-11T15:56:26.053Z,2.10
2022-09-11T16:01:32.577Z,2.00
2022-09-11T16:06:39.432Z,2.70
2022-09-11T16:11:44.181Z,2.20
2022-09-11T16:16:47.749Z,2.10
2022-09-11T16:21:50.807Z,2.30
2022-09-11T16:26:56.212Z,2.30
2022-09-11T16:31:59.481Z,2.20
2022-09-11T16:37:02.701Z,2.20
2022-09-11T16:42:05.610Z,1.90
2022-09-11T16:47:11.873Z,2.40
2022-09-11T16:52:15.748Z,2.00
2022-09-11T16:57:18.518Z,2.10
2022-09-11T17:02:21.612Z,2.30
2022-09-11T17:07:24.621Z,1.90
2022-09-11T17:12:28.126Z,3.20
2022-09-11T17:17:31.561Z,2.40
2022-09-11T17:22:34.457Z,2.30
2022-09-11T17:27:37.550Z,2.50
2022-09-11T17:32:40.481Z,2.70
2022-09-11T17:37:43.460Z,3.00
2022-09-11T17:42:48.119Z,2.90
2022-09-11T17:47:55.157Z,2.80
2022-09-11T17:52:58.842Z,2.80
2022-09-11T17:58:02.190Z,2.60
2022-09-11T18:03:04.995Z,2.90
2022-09-11T18:08:08.801Z,2.90
2022-09-11T18:13:12.000Z,3.80
2022-09-11T18:18:15.309Z,3.40
2022-09-11T18:23:19.673Z,3.70
2022-09-11T18:28:22.662Z,3.40
2022-09-11T18:33:25.560Z,3.40
2022-09-11T18:38:32.905Z,3.40
2022-09-11T18:43:36.909Z,2.60
2022-09-11T18:48:43.117Z,3.10
2022-09-11T18:53:52.250Z,3.00
2022-09-11T18:58:56.507Z,3.30
2022-09-11T19:04:06.023Z,4.00
2022-09-11T19:09:10.712Z,3.60
2022-09-11T19:14:13.775Z,2.90
2022-09-11T19:19:16.680Z,3.50
2022-09-11T19:24:20.460Z,3.30
2022-09-11T19:29:23.408Z,4.00
2022-09-11T19:34:26.936Z,3.80
2022-09-11T19:39:29.758Z,3.40
2022-09-11T19:44:34.579Z,3.40
2022-09-11T19:49:37.593Z,3.70
2022-09-11T19:54:40.591Z,3.50
2022-09-11T19:59:43.356Z,3.30
2022-09-11T20:04:46.198Z,4.10
2022-09-11T20:09:49.098Z,3.30
2022-09-11T20:14:51.899Z,3.30
2022-09-11T20:19:54.909Z,3.60
2022-09-11T20:24:57.813Z,3.80
2022-09-11T20:30:00.860Z,3.90
2022-09-11T20:35:05.533Z,3.80
2022-09-11T20:40:09.575Z,3.70
2022-09-11T20:45:12.804Z,3.80
2022-09-11T20:50:15.814Z,3.00
2022-09-11T20:55:18.714Z,3.50
2022-09-11T21:00:21.621Z,3.70
2022-09-11T21:05:24.419Z,3.60
2022-09-11T21:10:28.755Z,3.60
2022-09-11T21:15:34.203Z,3.20
2022-09-11T21:20:37.394Z,3.30
2022-09-11T21:25:40.590Z,3.00
2022-09-11T21:30:43.448Z,3.40
2022-09-11T21:35:52.600Z,3.30
2022-09-11T21:40:57.271Z,3.40
2022-09-11T21:46:00.559Z,3.70
2022-09-11T21:51:06.631Z,3.50
2022-09-11T21:56:17.013Z,3.60
2022-09-11T22:01:25.186Z,3.60
2022-09-11T22:06:29.900Z,3.60
2022-09-11T22:11:32.889Z,3.60
2022-09-11T22:16:35.847Z,3.60
2022-09-11T22:21:40.029Z,3.40
2022-09-11T22:26:44.981Z,3.30
2022-09-11T22:31:47.798Z,3.40
2022-09-11T22:36:50.791Z,4.00
2022-09-11T22:41:54.163Z,3.80
2022-09-11T22:46:56.937Z,3.60
2022-09-11T22:51:59.809Z,3.60
2022-09-11T22:57:02.611Z,3.70
2022-09-11T23:02:06.031Z,3.80
2022-09-11T23:07:17.941Z,4.20
2022-09-11T23:12:21.048Z,4.00
2022-09-11T23:17:23.957Z,4.00
2022-09-11T23:22:27.685Z,4.50
2022-09-11T23:27:33.653Z,4.30
2022-09-11T23:32:41.181Z,4.20
2022-09-11T23:37:45.545Z,4.70
2022-09-11T23:42:49.025Z,4.60
2022-09-11T23:47:51.819Z,4.20
2022-09-11T23:52:55.132Z,4.50
2022-09-11T23:57:57.935Z,4.20
